createdAt,value
2022-12-26T00:00:00.763Z,2.47
2022-12-26T00:02:27.580Z,2.20
2022-12-26T00:04:54.450Z,2.30
2022-12-26T00:07:21.305Z,2.53
2022-12-26T00:09:47.995Z,2.75
2022-12-26T00:12:14.637Z,2.17
2022-12-26T00:14:41.333Z,2.20
2022-12-26T00:17:07.943Z,2.30
2022-12-26T00:19:34.543Z,2.28
2022-12-26T00:22:01.109Z,2.40
2022-12-26T00:24:27.746Z,2.10
2022-12-26T00:26:54.314Z,2.53
2022-12-26T00:29:20.919Z,2.40
2022-12-26T00:31:47.735Z,2.83
2022-12-26T00:34:14.352Z,2.20
2022-12-26T00:36:40.940Z,2.28
2022-12-26T00:39:07.624Z,2.28
2022-12-26T00:41:34.233Z,2.63
2022-12-26T00:44:00.854Z,2.00
2022-12-26T00:46:28.057Z,2.30
2022-12-26T00:48:54.816Z,2.13
2022-12-26T00:51:22.216Z,2.60
2022-12-26T00:53:48.985Z,2.60
2022-12-26T00:56:16.206Z,2.35
2022-12-26T00:58:42.849Z,2.60
2022-12-26T01:01:14.692Z,2.20
2022-12-26T01:03:41.893Z,2.00
2022-12-26T01:06:08.598Z,2.40
2022-12-26T01:08:35.256Z,2.13
2022-12-26T01:11:07.827Z,2.55
2022-12-26T01:13:34.607Z,2.35
2022-12-26T01:16:02.257Z,2.47
2022-12-26T01:18:28.970Z,2.30
2022-12-26T01:21:05.690Z,2.58
2022-12-26T01:23:32.374Z,2.50
2022-12-26T01:26:16.980Z,2.97
2022-12-26T01:28:45.533Z,2.17
2022-12-26T01:31:12.198Z,2.60
2022-12-26T01:33:38.804Z,2.28
2022-12-26T01:36:05.797Z,2.33
2022-12-26T01:38:32.375Z,2.65
2022-12-26T01:41:17.590Z,2.45
2022-12-26T01:43:53.504Z,2.45
2022-12-26T01:46:26.041Z,2.10
2022-12-26T01:48:54.224Z,3.05
2022-12-26T01:51:25.289Z,2.70
2022-12-26T01:53:56.219Z,2.80
2022-12-26T01:56:45.777Z,2.30
2022-12-26T01:59:19.295Z,2.45
2022-12-26T02:01:50.316Z,2.80
2022-12-26T02:04:40.616Z,2.53
2022-12-26T02:07:07.779Z,2.53
2022-12-26T02:09:35.124Z,2.92
2022-12-26T02:12:34.934Z,2.40
2022-12-26T02:15:15.400Z,2.60
2022-12-26T02:17:42.574Z,2.50
2022-12-26T02:20:29.274Z,2.65
2022-12-26T02:22:55.834Z,2.40
2022-12-26T02:25:40.931Z,2.55
2022-12-26T02:28:28.875Z,2.50
2022-12-26T02:31:19.414Z,2.10
2022-12-26T02:34:04.436Z,2.58
2022-12-26T02:36:30.946Z,3.33
2022-12-26T02:38:57.458Z,2.20
2022-12-26T02:41:31.573Z,2.45
2022-12-26T02:44:48.664Z,2.50
2022-12-26T02:47:22.105Z,2.55
2022-12-26T02:50:07.242Z,2.22
2022-12-26T02:53:24.151Z,2.40
2022-12-26T02:56:16.064Z,2.22
2022-12-26T02:59:20.605Z,2.38
2022-12-26T03:02:38.212Z,2.38
2022-12-26T03:05:48.586Z,2.22
2022-12-26T03:08:41.158Z,2.42
2022-12-26T03:11:26.471Z,2.35
2022-12-26T03:13:54.549Z,2.75
2022-12-26T03:16:42.271Z,2.17
2022-12-26T03:19:12.271Z,2.70
2022-12-26T03:21:45.182Z,2.60
2022-12-26T03:24:14.358Z,2.55
2022-12-26T03:26:48.813Z,2.50
2022-12-26T03:29:56.826Z,2.35
2022-12-26T03:32:23.398Z,2.17
2022-12-26T03:34:49.962Z,2.38
2022-12-26T03:37:47.513Z,2.28
2022-12-26T03:40:47.212Z,2.38
2022-12-26T03:43:55.126Z,2.72
2022-12-26T03:47:13.949Z,2.53
2022-12-26T03:50:05.399Z,2.38
2022-12-26T03:53:22.377Z,2.30
2022-12-26T03:56:33.181Z,2.20
2022-12-26T03:59:28.091Z,3.03
2022-12-26T04:02:16.416Z,2.28
2022-12-26T04:05:24.701Z,2.42
2022-12-26T04:08:19.192Z,2.22
2022-12-26T04:11:12.172Z,2.42
2022-12-26T04:14:09.609Z,3.03
2022-12-26T04:16:57.566Z,2.60
2022-12-26T04:19:52.642Z,2.50
2022-12-26T04:22:50.959Z,2.28
2022-12-26T04:25:50.130Z,2.65
2022-12-26T04:28:38.220Z,2.25
2022-12-26T04:31:34.864Z,2.00
2022-12-26T04:34:25.808Z,2.20
2022-12-26T04:37:20.890Z,2.55
2022-12-26T04:40:10.259Z,2.28
2022-12-26T04:42:57.587Z,1.92
2022-12-26T04:45:25.216Z,2.65
2022-12-26T04:48:10.470Z,2.28
2022-12-26T04:50:37.106Z,2.63
2022-12-26T04:53:03.702Z,2.65
2022-12-26T04:55:33.282Z,2.67
2022-12-26T04:58:00.208Z,2.45
2022-12-26T05:00:28.259Z,2.67
2022-12-26T05:03:19.006Z,2.10
2022-12-26T05:06:07.063Z,2.13
2022-12-26T05:08:52.282Z,2.38
2022-12-26T05:11:18.851Z,2.90
2022-12-26T05:13:45.405Z,2.50
2022-12-26T05:16:30.387Z,2.67
2022-12-26T05:19:15.623Z,2.40
2022-12-26T05:22:01.689Z,2.38
2022-12-26T05:24:56.179Z,3.15
2022-12-26T05:27:42.089Z,2.70
2022-12-26T05:30:09.569Z,2.85
2022-12-26T05:32:54.536Z,2.55
2022-12-26T05:35:21.186Z,2.60
2022-12-26T05:37:47.806Z,2.50
2022-12-26T05:40:14.439Z,2.70
2022-12-26T05:42:41.273Z,2.35
2022-12-26T05:45:09.124Z,2.17
2022-12-26T05:47:35.763Z,3.15
2022-12-26T05:50:02.835Z,2.40
2022-12-26T05:52:29.533Z,2.58
2022-12-26T05:54:56.164Z,2.53
2022-12-26T05:57:23.002Z,2.47
2022-12-26T05:59:49.758Z,2.50
2022-12-26T06:02:16.551Z,2.08
2022-12-26T06:04:43.206Z,2.35
2022-12-26T06:07:09.828Z,2.50
2022-12-26T06:09:36.519Z,2.15
2022-12-26T06:12:03.379Z,2.00
2022-12-26T06:14:30.092Z,2.20
2022-12-26T06:16:56.653Z,2.38
2022-12-26T06:19:23.240Z,2.00
2022-12-26T06:21:49.814Z,2.35
2022-12-26T06:24:16.414Z,1.73
2022-12-26T06:26:42.991Z,1.83
2022-12-26T06:29:09.887Z,1.73
2022-12-26T06:31:36.860Z,1.80
2022-12-26T06:34:03.682Z,1.60
2022-12-26T06:36:30.432Z,1.58
2022-12-26T06:38:58.032Z,1.63
2022-12-26T06:41:25.294Z,1.85
2022-12-26T06:43:52.715Z,1.70
2022-12-26T06:46:21.997Z,1.60
2022-12-26T06:48:49.015Z,2.05
2022-12-26T06:51:20.276Z,2.00
2022-12-26T06:53:47.499Z,1.73
2022-12-26T06:56:23.393Z,1.42
2022-12-26T06:58:58.230Z,1.40
2022-12-26T07:01:26.194Z,1.50
2022-12-26T07:03:54.799Z,1.45
2022-12-26T07:06:30.732Z,1.20
2022-12-26T07:09:00.645Z,1.00
2022-12-26T07:11:30.670Z,1.40
2022-12-26T07:13:57.686Z,1.20
2022-12-26T07:16:25.270Z,1.10
2022-12-26T07:18:54.218Z,1.50
2022-12-26T07:21:21.680Z,1.40
2022-12-26T07:23:48.413Z,1.15
2022-12-26T07:26:15.032Z,1.30
2022-12-26T07:28:41.690Z,1.65
2022-12-26T07:31:08.479Z,1.50
2022-12-26T07:33:35.581Z,1.33
2022-12-26T07:36:06.504Z,1.45
2022-12-26T07:38:34.267Z,1.48
2022-12-26T07:41:21.062Z,1.40
2022-12-26T07:43:47.615Z,1.38
2022-12-26T07:46:14.242Z,1.30
2022-12-26T07:48:40.875Z,1.63
2022-12-26T07:51:07.531Z,1.50
2022-12-26T07:53:34.146Z,1.90
2022-12-26T07:56:01.220Z,1.42
2022-12-26T07:58:28.147Z,1.42
2022-12-26T08:00:54.819Z,1.60
2022-12-26T08:03:21.678Z,2.05
2022-12-26T08:05:49.308Z,1.50
2022-12-26T08:08:16.213Z,1.40
2022-12-26T08:10:43.165Z,1.70
2022-12-26T08:13:10.902Z,1.77
2022-12-26T08:15:40.957Z,1.67
2022-12-26T08:18:07.980Z,1.85
2022-12-26T08:20:34.593Z,1.83
2022-12-26T08:23:01.143Z,2.20
2022-12-26T08:25:28.078Z,1.80
2022-12-26T08:27:54.786Z,1.75
2022-12-26T08:30:21.383Z,1.65
2022-12-26T08:32:48.079Z,1.90
2022-12-26T08:35:14.834Z,1.80
2022-12-26T08:37:41.581Z,1.95
2022-12-26T08:40:08.717Z,1.77
2022-12-26T08:42:44.694Z,1.70
2022-12-26T08:45:22.268Z,1.70
2022-12-26T08:47:48.834Z,1.73
2022-12-26T08:50:16.232Z,1.65
2022-12-26T08:52:43.480Z,2.30
2022-12-26T08:55:10.370Z,1.95
2022-12-26T08:57:37.827Z,1.80
2022-12-26T09:00:05.732Z,2.00
2022-12-26T09:02:32.758Z,1.63
2022-12-26T09:04:59.419Z,2.00
2022-12-26T09:07:26.035Z,1.88
2022-12-26T09:09:53.717Z,2.53
2022-12-26T09:12:20.341Z,1.92
2022-12-26T09:14:50.219Z,2.05
2022-12-26T09:17:17.176Z,1.95
2022-12-26T09:19:43.806Z,2.08
2022-12-26T09:22:33.466Z,1.90
2022-12-26T09:25:01.888Z,2.20
2022-12-26T09:27:29.484Z,2.05
2022-12-26T09:29:56.081Z,2.08
2022-12-26T09:32:22.972Z,2.17
2022-12-26T09:34:49.769Z,2.10
2022-12-26T09:37:16.432Z,2.30
2022-12-26T09:39:43.014Z,2.33
2022-12-26T09:42:28.429Z,2.22
2022-12-26T09:45:15.299Z,2.33
2022-12-26T09:48:19.607Z,1.80
2022-12-26T09:50:50.660Z,2.15
2022-12-26T09:53:26.039Z,2.60
2022-12-26T09:56:10.774Z,2.60
2022-12-26T10:01:20.891Z,2.05
2022-12-26T10:03:56.424Z,2.50
2022-12-26T10:06:25.859Z,2.33
2022-12-26T10:09:18.508Z,2.08
2022-12-26T10:12:03.736Z,1.75
2022-12-26T10:15:01.263Z,1.60
2022-12-26T10:17:52.450Z,2.33
2022-12-26T10:20:37.339Z,1.98
2022-12-26T10:23:15.005Z,1.80
2022-12-26T10:25:47.183Z,1.85
2022-12-26T10:28:44.158Z,2.08
2022-12-26T10:31:21.153Z,1.77
2022-12-26T10:33:54.158Z,1.63
2022-12-26T10:36:35.301Z,2.20
2022-12-26T10:39:06.014Z,2.10
2022-12-26T10:42:01.299Z,2.00
2022-12-26T10:44:28.261Z,1.60
2022-12-26T10:47:09.930Z,1.77
2022-12-26T10:49:36.731Z,1.63
2022-12-26T10:52:04.347Z,1.83
2022-12-26T10:54:31.449Z,2.08
2022-12-26T10:56:59.285Z,1.80
2022-12-26T10:59:55.557Z,1.77
2022-12-26T11:02:32.556Z,2.08
2022-12-26T11:05:27.209Z,1.63
2022-12-26T11:07:57.474Z,1.77
2022-12-26T11:10:29.503Z,1.50
2022-12-26T11:15:41.929Z,1.92
2022-12-26T11:18:32.230Z,1.60
2022-12-26T11:21:32.375Z,1.80
2022-12-26T11:24:20.201Z,1.70
2022-12-26T11:26:47.248Z,1.80
2022-12-26T11:29:22.243Z,1.65
2022-12-26T11:32:00.136Z,1.52
2022-12-26T11:34:36.499Z,1.63
2022-12-26T11:37:06.079Z,1.63
2022-12-26T11:39:38.037Z,1.73
2022-12-26T11:42:12.794Z,1.58
2022-12-26T11:44:45.431Z,1.45
2022-12-26T11:47:15.004Z,1.63
2022-12-26T11:50:03.779Z,1.55
2022-12-26T11:52:56.621Z,1.40
2022-12-26T11:55:26.541Z,1.30
2022-12-26T11:58:08.114Z,1.55
2022-12-26T12:00:50.679Z,1.95
2022-12-26T12:03:58.788Z,1.83
2022-12-26T12:06:40.065Z,1.10
2022-12-26T12:09:33.118Z,1.60
2022-12-26T12:12:17.149Z,1.30
2022-12-26T12:14:55.328Z,1.20
2022-12-26T12:17:55.558Z,0.90
2022-12-26T12:20:56.114Z,1.45
2022-12-26T12:23:32.143Z,1.15
2022-12-26T12:26:10.189Z,1.10
2022-12-26T12:29:10.883Z,1.30
2022-12-26T12:31:55.905Z,1.30
2022-12-26T12:34:25.225Z,1.00
2022-12-26T12:37:16.199Z,1.30
2022-12-26T12:40:01.454Z,1.70
2022-12-26T12:42:39.999Z,1.40
2022-12-26T12:45:19.159Z,1.20
2022-12-26T12:48:10.216Z,1.10
2022-12-26T12:50:57.104Z,1.30
2022-12-26T12:53:37.510Z,1.40
2022-12-26T12:56:41.946Z,1.17
2022-12-26T12:59:47.230Z,1.20
2022-12-26T13:02:26.936Z,1.50
2022-12-26T13:05:18.036Z,1.33
2022-12-26T13:07:52.156Z,1.42
2022-12-26T13:10:35.151Z,1.30
2022-12-26T13:13:18.532Z,1.48
2022-12-26T13:15:49.425Z,1.40
2022-12-26T13:18:20.651Z,1.35
2022-12-26T13:21:06.345Z,1.43
2022-12-26T13:23:54.557Z,0.93
2022-12-26T13:26:27.101Z,1.30
2022-12-26T13:29:06.521Z,1.48
2022-12-26T13:31:35.697Z,1.45
2022-12-26T13:34:04.671Z,1.40
2022-12-26T13:36:42.484Z,1.48
2022-12-26T13:39:27.443Z,1.23
2022-12-26T13:42:28.040Z,1.13
2022-12-26T13:44:55.004Z,1.20
2022-12-26T13:47:42.028Z,1.10
2022-12-26T13:50:49.938Z,0.98
2022-12-26T13:53:25.995Z,1.13
2022-12-26T13:55:58.016Z,1.20
2022-12-26T13:58:30.430Z,1.48
2022-12-26T14:01:17.274Z,1.40
2022-12-26T14:04:02.056Z,1.35
2022-12-26T14:06:49.841Z,1.00
2022-12-26T14:09:22.285Z,1.20
2022-12-26T14:11:59.719Z,1.10
2022-12-26T14:14:58.915Z,1.63
2022-12-26T14:17:56.163Z,1.65
2022-12-26T14:20:41.716Z,1.27
2022-12-26T14:23:29.978Z,1.33
2022-12-26T14:26:11.117Z,1.10
2022-12-26T14:28:58.103Z,1.20
2022-12-26T14:31:36.833Z,1.27
2022-12-26T14:34:27.915Z,1.25
2022-12-26T14:37:10.756Z,1.88
2022-12-26T14:40:01.086Z,1.73
2022-12-26T14:42:48.569Z,1.83
2022-12-26T14:45:20.998Z,1.60
2022-12-26T14:47:49.640Z,1.50
2022-12-26T14:50:39.838Z,1.40
2022-12-26T14:53:25.028Z,1.77
2022-12-26T14:56:15.860Z,2.15
2022-12-26T14:58:48.894Z,1.70
2022-12-26T15:01:15.756Z,1.58
2022-12-26T15:03:52.190Z,1.73
2022-12-26T15:06:18.759Z,1.30
2022-12-26T15:08:48.394Z,1.63
2022-12-26T15:11:51.957Z,1.45
2022-12-26T15:14:37.461Z,1.63
2022-12-26T15:17:27.997Z,1.73
2022-12-26T15:20:13.237Z,1.33
2022-12-26T15:22:46.266Z,1.23
2022-12-26T15:25:28.185Z,1.40
2022-12-26T15:27:57.471Z,1.50
2022-12-26T15:30:51.148Z,1.00
2022-12-26T15:33:58.791Z,0.60
2022-12-26T15:36:37.560Z,0.63
2022-12-26T15:39:15.940Z,0.60
2022-12-26T15:41:58.224Z,0.50
2022-12-26T15:47:16.200Z,0.57
2022-12-26T15:49:53.874Z,0.47
2022-12-26T15:52:59.044Z,0.60
2022-12-26T15:55:47.469Z,0.50
2022-12-26T15:58:29.229Z,0.90
2022-12-26T16:00:56.193Z,0.40
2022-12-26T16:03:58.199Z,0.50
2022-12-26T16:06:36.842Z,0.77
2022-12-26T16:09:22.098Z,0.63
2022-12-26T16:11:57.960Z,0.90
2022-12-26T16:14:26.457Z,0.80
2022-12-26T16:16:53.306Z,0.73
2022-12-26T16:19:27.237Z,0.90
2022-12-26T16:22:21.453Z,1.20
2022-12-26T16:24:51.500Z,0.80
2022-12-26T16:27:24.644Z,1.05
2022-12-26T16:30:02.090Z,0.90
2022-12-26T16:32:36.742Z,1.08
2022-12-26T16:35:04.542Z,1.58
2022-12-26T16:37:32.227Z,1.65
2022-12-26T16:40:32.887Z,1.20
2022-12-26T16:42:59.494Z,1.20
2022-12-26T16:45:27.850Z,1.52
2022-12-26T16:47:55.131Z,1.35
2022-12-26T16:50:25.569Z,1.77
2022-12-26T16:53:34.047Z,1.40
2022-12-26T16:56:26.584Z,1.48
2022-12-26T16:59:17.809Z,1.42
2022-12-26T17:02:03.139Z,1.67
2022-12-26T17:04:30.644Z,2.03
2022-12-26T17:07:07.149Z,1.38
2022-12-26T17:09:44.806Z,1.58
2022-12-26T17:12:22.711Z,1.38
2022-12-26T17:14:51.211Z,1.80
2022-12-26T17:17:23.738Z,1.70
2022-12-26T17:19:54.315Z,1.23
2022-12-26T17:22:37.432Z,1.30
2022-12-26T17:25:30.367Z,1.58
2022-12-26T17:28:09.542Z,1.38
2022-12-26T17:30:41.684Z,1.27
2022-12-26T17:33:19.427Z,1.20
2022-12-26T17:38:44.576Z,1.80
2022-12-26T17:41:16.072Z,1.55
2022-12-26T17:43:43.692Z,1.33
2022-12-26T17:46:14.320Z,1.63
2022-12-26T17:48:42.043Z,1.55
2022-12-26T17:51:14.873Z,1.73
2022-12-26T17:53:46.910Z,1.13
2022-12-26T17:58:43.896Z,1.48
2022-12-26T18:01:12.773Z,1.42
2022-12-26T18:03:43.011Z,1.00
2022-12-26T18:06:13.836Z,1.00
2022-12-26T18:08:41.545Z,1.17
2022-12-26T18:11:11.224Z,1.23
2022-12-26T18:13:38.510Z,1.30
2022-12-26T18:16:06.178Z,1.45
2022-12-26T18:18:38.299Z,1.10
2022-12-26T18:21:07.283Z,1.13
2022-12-26T18:23:33.845Z,0.88
2022-12-26T18:26:03.725Z,1.20
2022-12-26T18:28:30.345Z,1.35
2022-12-26T18:30:58.106Z,1.00
2022-12-26T18:33:25.344Z,1.40
2022-12-26T18:35:52.079Z,1.35
2022-12-26T18:38:20.720Z,1.20
2022-12-26T18:40:50.698Z,0.98
2022-12-26T18:43:18.037Z,1.05
2022-12-26T18:45:44.722Z,1.10
2022-12-26T18:48:16.529Z,1.42
2022-12-26T18:50:43.878Z,1.27
2022-12-26T18:53:10.786Z,1.10
2022-12-26T18:55:37.611Z,1.08
2022-12-26T18:58:04.318Z,2.05
2022-12-26T19:00:31.003Z,1.00
2022-12-26T19:02:57.684Z,1.35
2022-12-26T19:05:30.945Z,1.25
2022-12-26T19:07:59.023Z,1.38
2022-12-26T19:10:31.709Z,0.98
2022-12-26T19:13:05.578Z,1.67
2022-12-26T19:15:34.996Z,1.52
2022-12-26T19:18:03.063Z,1.40
2022-12-26T19:20:30.167Z,1.30
2022-12-26T19:22:57.183Z,1.60
2022-12-26T19:25:25.742Z,1.35
2022-12-26T19:27:52.814Z,1.13
2022-12-26T19:30:20.351Z,1.50
2022-12-26T19:32:47.155Z,1.17
2022-12-26T19:35:15.315Z,1.52
2022-12-26T19:37:42.428Z,1.40
2022-12-26T19:40:11.165Z,1.70
2022-12-26T19:42:38.501Z,1.30
2022-12-26T19:45:06.633Z,1.23
2022-12-26T19:47:34.447Z,1.23
2022-12-26T19:50:01.502Z,1.85
2022-12-26T19:52:28.117Z,1.50
2022-12-26T19:54:54.765Z,1.63
2022-12-26T19:57:23.268Z,2.25
2022-12-26T19:59:50.695Z,1.40
2022-12-26T20:02:17.469Z,1.58
2022-12-26T20:04:44.216Z,1.55
2022-12-26T20:07:10.787Z,1.00
2022-12-26T20:09:37.414Z,1.67
2022-12-26T20:12:04.169Z,1.50
2022-12-26T20:14:32.655Z,1.52
2022-12-26T20:17:06.003Z,1.30
2022-12-26T20:19:34.409Z,1.15
2022-12-26T20:22:01.006Z,1.20
2022-12-26T20:24:27.540Z,1.40
2022-12-26T20:26:54.298Z,1.67
2022-12-26T20:29:20.905Z,1.45
2022-12-26T20:31:47.661Z,1.50
2022-12-26T20:34:14.362Z,1.52
2022-12-26T20:36:41.984Z,1.52
2022-12-26T20:39:12.816Z,1.83
2022-12-26T20:41:39.451Z,1.42
2022-12-26T20:44:06.285Z,1.55
2022-12-26T20:46:34.764Z,1.42
2022-12-26T20:49:02.546Z,1.63
2022-12-26T20:51:36.831Z,1.63
2022-12-26T20:54:05.393Z,1.42
2022-12-26T20:56:31.982Z,1.50
2022-12-26T20:58:59.712Z,1.52
2022-12-26T21:01:28.084Z,1.85
2022-12-26T21:03:55.820Z,1.42
2022-12-26T21:06:28.481Z,1.50
2022-12-26T21:08:56.544Z,1.70
2022-12-26T21:11:29.640Z,1.50
2022-12-26T21:13:59.147Z,1.45
2022-12-26T21:16:37.249Z,1.75
2022-12-26T21:19:08.039Z,1.83
2022-12-26T21:21:41.127Z,1.70
2022-12-26T21:24:12.195Z,1.63
2022-12-26T21:26:40.439Z,1.67
2022-12-26T21:29:09.260Z,1.65
2022-12-26T21:31:37.340Z,1.90
2022-12-26T21:34:04.526Z,1.45
2022-12-26T21:36:31.439Z,1.73
2022-12-26T21:38:58.383Z,1.85
2022-12-26T21:41:25.612Z,2.17
2022-12-26T21:43:54.588Z,1.83
2022-12-26T21:46:21.689Z,1.65
2022-12-26T21:48:49.928Z,1.60
2022-12-26T21:51:18.011Z,1.65
2022-12-26T21:53:45.379Z,2.97
2022-12-26T21:56:14.250Z,1.70
2022-12-26T21:59:00.195Z,1.55
2022-12-26T22:01:27.713Z,1.80
2022-12-26T22:04:13.880Z,1.65
2022-12-26T22:06:41.457Z,1.92
2022-12-26T22:09:09.293Z,1.58
2022-12-26T22:11:54.574Z,2.03
2022-12-26T22:14:21.769Z,1.67
2022-12-26T22:16:52.755Z,1.70
2022-12-26T22:19:19.423Z,2.35
2022-12-26T22:21:45.967Z,1.75
2022-12-26T22:24:12.623Z,1.88
2022-12-26T22:26:39.197Z,1.73
2022-12-26T22:29:05.735Z,1.85
2022-12-26T22:31:34.422Z,1.63
2022-12-26T22:34:07.641Z,1.88
2022-12-26T22:36:35.019Z,1.83
2022-12-26T22:39:01.784Z,1.65
2022-12-26T22:41:29.280Z,1.83
2022-12-26T22:43:56.053Z,2.20
2022-12-26T22:46:22.808Z,1.90
2022-12-26T22:48:49.799Z,1.63
2022-12-26T22:51:23.847Z,1.60
2022-12-26T22:53:54.487Z,2.20
2022-12-26T22:56:21.171Z,2.10
2022-12-26T22:58:47.918Z,2.53
2022-12-26T23:01:17.587Z,2.30
2022-12-26T23:03:44.475Z,2.55
2022-12-26T23:06:32.634Z,2.15
2022-12-26T23:09:02.122Z,2.47
2022-12-26T23:11:34.785Z,2.17
2022-12-26T23:14:03.556Z,2.15
2022-12-26T23:16:39.214Z,2.17
2022-12-26T23:19:39.267Z,2.08
2022-12-26T23:22:06.104Z,2.00
2022-12-26T23:24:33.179Z,2.05
2022-12-26T23:27:24.520Z,2.03
2022-12-26T23:30:10.484Z,2.10
2022-12-26T23:32:38.855Z,1.80
2022-12-26T23:35:07.122Z,1.98
2022-12-26T23:37:33.822Z,1.90
2022-12-26T23:40:00.357Z,2.20
2022-12-26T23:42:26.965Z,2.55
2022-12-26T23:44:53.611Z,2.40
2022-12-26T23:47:20.152Z,2.25
2022-12-26T23:49:46.676Z,2.08
2022-12-26T23:52:13.244Z,2.55
2022-12-26T23:54:39.811Z,2.25
2022-12-26T23:57:06.381Z,2.08
2022-12-26T23:59:32.946Z,2.33
